Pagrindinis puslapis
METAR-TAF:

METAR-TAF

Oro uostai :

Sankt Galenas, Šveicarija

platuma: 47-29-06N, ilguma: 009-33-43E, Aukštis: 398 m

Dabartinis oras

Ataskaita buvo paskelbta 19 minutes, ne 21:20 UTC
Vėjas 1 kt nuo kintamojo kryptimis
Temperatūra 10°C
Drėgmė 71%
Slėgis 1023 hPa
Matomumas 10 km arba daugiau
nėra debesų žemiau 1500 m ir nėra kamuolinių lietaus debesų

METAR: LSZR 092120Z AUTO VRB01KT CAVOK 10/05 Q1023

Laikas: 23:39 (21:39 UTC)

Prognozė

Ataskaita buvo paskelbta 7 valandos ir 14 minutes, ne 14:25 UTC
Prognozė galioja nuo 09 metu 15 UTC su 09 metu 24 UTC
Vėjas 5 kt iš Vakarų
Matomumas 10 km arba daugiau
nėra debesų žemiau 1500 m ir nėra kamuolinių lietaus debesų

TAF: LSZR 091425Z 0915/0924 28005KT CAVOK

Orai ataskaitas ir orų prognozės (METAR, TAF).

turimą stotys yra geltonos ir raudonos taškus žemėlapyje.

Perkelti pele per norėdami pamatyti stoties vardą.

Tada spustelėkite, norėdami matyti oro stebėjimo ir prognozės.

Norėdami pakeisti žemėlapį: spustelėkite ant žalios mygtukų su juodo kryžiaus žemyn,; žalią mygtuką su brūkšneliu, jei norite nutolinti; arba žalių rodyklių gretimoms žemėlapius.


METAR-TAF: